sensor_id;sensor_type;location;lat;lon;timestamp;P1;durP1;ratioP1;P2;durP2;ratioP2
21979;SDS011;11154;48.558;9.234;2024-03-02T00:01:32;10.70;;;6.78;;
21979;SDS011;11154;48.558;9.234;2024-03-02T00:03:32;8.00;;;6.50;;
21979;SDS011;11154;48.558;9.234;2024-03-02T00:05:34;10.68;;;7.30;;
21979;SDS011;11154;48.558;9.234;2024-03-02T00:07:35;10.30;;;6.57;;
21979;SDS011;11154;48.558;9.234;2024-03-02T00:09:37;9.93;;;6.80;;
21979;SDS011;11154;48.558;9.234;2024-03-02T00:11:39;10.25;;;6.95;;
21979;SDS011;11154;48.558;9.234;2024-03-02T00:13:41;8.95;;;7.00;;
21979;SDS011;11154;48.558;9.234;2024-03-02T00:15:42;9.05;;;6.63;;
21979;SDS011;11154;48.558;9.234;2024-03-02T00:17:48;8.57;;;6.55;;
21979;SDS011;11154;48.558;9.234;2024-03-02T00:19:54;8.38;;;6.53;;
21979;SDS011;11154;48.558;9.234;2024-03-02T00:21:56;8.10;;;6.13;;
21979;SDS011;11154;48.558;9.234;2024-03-02T00:23:58;8.68;;;6.30;;
21979;SDS011;11154;48.558;9.234;2024-03-02T00:25:59;11.02;;;7.32;;
21979;SDS011;11154;48.558;9.234;2024-03-02T00:28:02;8.00;;;6.45;;
21979;SDS011;11154;48.558;9.234;2024-03-02T00:30:05;9.60;;;6.63;;
21979;SDS011;11154;48.558;9.234;2024-03-02T00:32:27;9.18;;;6.18;;
21979;SDS011;11154;48.558;9.234;2024-03-02T00:34:31;7.50;;;6.03;;
21979;SDS011;11154;48.558;9.234;2024-03-02T00:36:34;11.98;;;6.45;;
21979;SDS011;11154;48.558;9.234;2024-03-02T00:38:40;7.75;;;5.53;;
21979;SDS011;11154;48.558;9.234;2024-03-02T00:40:45;8.27;;;5.63;;
21979;SDS011;11154;48.558;9.234;2024-03-02T00:42:47;8.23;;;5.13;;
21979;SDS011;11154;48.558;9.234;2024-03-02T00:44:49;6.32;;;4.90;;
21979;SDS011;11154;48.558;9.234;2024-03-02T00:46:50;7.35;;;5.03;;
21979;SDS011;11154;48.558;9.234;2024-03-02T00:48:55;9.07;;;5.38;;
21979;SDS011;11154;48.558;9.234;2024-03-02T00:51:00;7.43;;;5.38;;
21979;SDS011;11154;48.558;9.234;2024-03-02T00:53:01;9.15;;;5.72;;
21979;SDS011;11154;48.558;9.234;2024-03-02T00:55:03;7.00;;;6.05;;
21979;SDS011;11154;48.558;9.234;2024-03-02T00:57:05;7.88;;;5.97;;
21979;SDS011;11154;48.558;9.234;2024-03-02T00:59:12;8.50;;;6.60;;
21979;SDS011;11154;48.558;9.234;2024-03-02T01:01:14;8.07;;;6.35;;
21979;SDS011;11154;48.558;9.234;2024-03-02T01:03:16;10.50;;;7.65;;
21979;SDS011;11154;48.558;9.234;2024-03-02T01:05:16;8.70;;;6.32;;
21979;SDS011;11154;48.558;9.234;2024-03-02T01:07:19;8.93;;;6.07;;
21979;SDS011;11154;48.558;9.234;2024-03-02T01:09:21;8.77;;;6.35;;
21979;SDS011;11154;48.558;9.234;2024-03-02T01:11:23;8.20;;;5.90;;
21979;SDS011;11154;48.558;9.234;2024-03-02T01:13:24;6.75;;;5.25;;
21979;SDS011;11154;48.558;9.234;2024-03-02T01:15:25;6.50;;;5.00;;
21979;SDS011;11154;48.558;9.234;2024-03-02T01:17:27;6.10;;;4.85;;
21979;SDS011;11154;48.558;9.234;2024-03-02T01:19:28;8.52;;;5.35;;
21979;SDS011;11154;48.558;9.234;2024-03-02T01:21:30;9.27;;;5.72;;
21979;SDS011;11154;48.558;9.234;2024-03-02T01:23:33;9.10;;;6.30;;
21979;SDS011;11154;48.558;9.234;2024-03-02T01:25:35;12.60;;;5.00;;
21979;SDS011;11154;48.558;9.234;2024-03-02T01:27:35;6.60;;;4.10;;
21979;SDS011;11154;48.558;9.234;2024-03-02T01:29:37;8.45;;;4.97;;
21979;SDS011;11154;48.558;9.234;2024-03-02T01:31:39;5.15;;;4.20;;
21979;SDS011;11154;48.558;9.234;2024-03-02T01:33:42;9.82;;;4.97;;
21979;SDS011;11154;48.558;9.234;2024-03-02T01:35:43;6.53;;;4.70;;
21979;SDS011;11154;48.558;9.234;2024-03-02T01:37:45;6.57;;;4.35;;
21979;SDS011;11154;48.558;9.234;2024-03-02T01:39:48;6.55;;;4.47;;
21979;SDS011;11154;48.558;9.234;2024-03-02T01:41:49;6.85;;;4.43;;
21979;SDS011;11154;48.558;9.234;2024-03-02T01:43:50;5.65;;;3.92;;
21979;SDS011;11154;48.558;9.234;2024-03-02T01:45:52;6.55;;;3.45;;
21979;SDS011;11154;48.558;9.234;2024-03-02T01:47:53;6.07;;;3.78;;
21979;SDS011;11154;48.558;9.234;2024-03-02T01:49:55;5.65;;;4.03;;
21979;SDS011;11154;48.558;9.234;2024-03-02T01:51:56;6.72;;;3.50;;
21979;SDS011;11154;48.558;9.234;2024-03-02T01:53:57;6.57;;;3.80;;
21979;SDS011;11154;48.558;9.234;2024-03-02T01:56:00;5.75;;;3.90;;
21979;SDS011;11154;48.558;9.234;2024-03-02T01:58:02;7.18;;;3.63;;
21979;SDS011;11154;48.558;9.234;2024-03-02T02:00:04;6.00;;;3.63;;
21979;SDS011;11154;48.558;9.234;2024-03-02T02:02:06;6.32;;;4.20;;
21979;SDS011;11154;48.558;9.234;2024-03-02T02:04:08;5.28;;;4.07;;
21979;SDS011;11154;48.558;9.234;2024-03-02T02:06:10;6.30;;;3.97;;
21979;SDS011;11154;48.558;9.234;2024-03-02T02:08:11;6.25;;;4.85;;
21979;SDS011;11154;48.558;9.234;2024-03-02T02:10:13;5.57;;;4.97;;
21979;SDS011;11154;48.558;9.234;2024-03-02T02:12:16;5.68;;;4.95;;
21979;SDS011;11154;48.558;9.234;2024-03-02T02:14:18;7.80;;;5.70;;
21979;SDS011;11154;48.558;9.234;2024-03-02T02:16:19;6.25;;;5.10;;
21979;SDS011;11154;48.558;9.234;2024-03-02T02:18:21;6.47;;;5.00;;
21979;SDS011;11154;48.558;9.234;2024-03-02T02:20:22;7.57;;;5.78;;
21979;SDS011;11154;48.558;9.234;2024-03-02T02:22:25;8.43;;;5.50;;
21979;SDS011;11154;48.558;9.234;2024-03-02T02:24:27;6.28;;;4.93;;
21979;SDS011;11154;48.558;9.234;2024-03-02T02:26:28;6.68;;;5.40;;
21979;SDS011;11154;48.558;9.234;2024-03-02T02:28:29;8.45;;;5.65;;
21979;SDS011;11154;48.558;9.234;2024-03-02T02:30:31;6.70;;;5.57;;
21979;SDS011;11154;48.558;9.234;2024-03-02T02:32:33;7.07;;;5.85;;
21979;SDS011;11154;48.558;9.234;2024-03-02T02:34:35;7.53;;;5.70;;
21979;SDS011;11154;48.558;9.234;2024-03-02T02:36:37;5.90;;;5.30;;
21979;SDS011;11154;48.558;9.234;2024-03-02T02:38:42;6.80;;;5.25;;
21979;SDS011;11154;48.558;9.234;2024-03-02T02:40:47;6.47;;;5.40;;
21979;SDS011;11154;48.558;9.234;2024-03-02T02:42:48;6.53;;;5.60;;
21979;SDS011;11154;48.558;9.234;2024-03-02T02:44:52;6.60;;;5.63;;
21979;SDS011;11154;48.558;9.234;2024-03-02T02:46:53;7.38;;;5.72;;
21979;SDS011;11154;48.558;9.234;2024-03-02T02:48:54;8.18;;;6.28;;
21979;SDS011;11154;48.558;9.234;2024-03-02T02:50:55;7.38;;;6.03;;
21979;SDS011;11154;48.558;9.234;2024-03-02T02:52:57;8.93;;;6.05;;
21979;SDS011;11154;48.558;9.234;2024-03-02T02:55:00;7.72;;;6.00;;
21979;SDS011;11154;48.558;9.234;2024-03-02T02:57:03;8.00;;;5.90;;
21979;SDS011;11154;48.558;9.234;2024-03-02T02:59:04;8.20;;;6.45;;
21979;SDS011;11154;48.558;9.234;2024-03-02T03:01:06;7.32;;;6.18;;
21979;SDS011;11154;48.558;9.234;2024-03-02T03:03:07;8.63;;;6.93;;
21979;SDS011;11154;48.558;9.234;2024-03-02T03:05:09;8.27;;;7.07;;
21979;SDS011;11154;48.558;9.234;2024-03-02T03:07:12;9.82;;;7.30;;
21979;SDS011;11154;48.558;9.234;2024-03-02T03:09:13;8.38;;;7.15;;
21979;SDS011;11154;48.558;9.234;2024-03-02T03:11:16;9.65;;;6.80;;
21979;SDS011;11154;48.558;9.234;2024-03-02T03:13:18;8.43;;;6.88;;
21979;SDS011;11154;48.558;9.234;2024-03-02T03:15:20;7.95;;;6.63;;
21979;SDS011;11154;48.558;9.234;2024-03-02T03:17:21;7.15;;;6.30;;
21979;SDS011;11154;48.558;9.234;2024-03-02T03:19:22;10.48;;;7.13;;
21979;SDS011;11154;48.558;9.234;2024-03-02T03:21:24;9.23;;;7.18;;
21979;SDS011;11154;48.558;9.234;2024-03-02T03:23:25;6.82;;;6.03;;
21979;SDS011;11154;48.558;9.234;2024-03-02T03:25:26;6.78;;;5.93;;
21979;SDS011;11154;48.558;9.234;2024-03-02T03:27:29;8.07;;;6.75;;
21979;SDS011;11154;48.558;9.234;2024-03-02T03:29:29;7.47;;;6.65;;
21979;SDS011;11154;48.558;9.234;2024-03-02T03:31:31;7.90;;;6.78;;
21979;SDS011;11154;48.558;9.234;2024-03-02T03:33:32;7.40;;;6.55;;
21979;SDS011;11154;48.558;9.234;2024-03-02T03:35:34;9.30;;;6.93;;
21979;SDS011;11154;48.558;9.234;2024-03-02T03:37:36;8.90;;;7.43;;
21979;SDS011;11154;48.558;9.234;2024-03-02T03:39:36;7.97;;;7.18;;
21979;SDS011;11154;48.558;9.234;2024-03-02T03:41:38;8.55;;;7.07;;
21979;SDS011;11154;48.558;9.234;2024-03-02T03:43:42;8.27;;;6.22;;
21979;SDS011;11154;48.558;9.234;2024-03-02T03:45:43;6.00;;;5.25;;
21979;SDS011;11154;48.558;9.234;2024-03-02T03:47:45;6.68;;;5.40;;
21979;SDS011;11154;48.558;9.234;2024-03-02T03:49:47;5.90;;;5.22;;
21979;SDS011;11154;48.558;9.234;2024-03-02T03:51:49;7.22;;;5.20;;
21979;SDS011;11154;48.558;9.234;2024-03-02T03:53:51;5.32;;;4.68;;
21979;SDS011;11154;48.558;9.234;2024-03-02T03:55:52;5.82;;;5.00;;
21979;SDS011;11154;48.558;9.234;2024-03-02T03:57:54;5.80;;;5.20;;
21979;SDS011;11154;48.558;9.234;2024-03-02T03:59:57;5.43;;;4.93;;
21979;SDS011;11154;48.558;9.234;2024-03-02T04:01:59;6.57;;;5.03;;
21979;SDS011;11154;48.558;9.234;2024-03-02T04:04:01;7.03;;;4.70;;
21979;SDS011;11154;48.558;9.234;2024-03-02T04:06:03;8.02;;;4.82;;
21979;SDS011;11154;48.558;9.234;2024-03-02T04:08:05;7.55;;;4.80;;
21979;SDS011;11154;48.558;9.234;2024-03-02T04:10:07;5.13;;;4.07;;
21979;SDS011;11154;48.558;9.234;2024-03-02T04:12:10;7.18;;;4.22;;
21979;SDS011;11154;48.558;9.234;2024-03-02T04:14:13;6.60;;;3.88;;
21979;SDS011;11154;48.558;9.234;2024-03-02T04:16:16;5.97;;;4.28;;
21979;SDS011;11154;48.558;9.234;2024-03-02T04:18:17;6.40;;;3.85;;
21979;SDS011;11154;48.558;9.234;2024-03-02T04:20:19;4.93;;;3.17;;
21979;SDS011;11154;48.558;9.234;2024-03-02T04:22:21;10.35;;;4.07;;
21979;SDS011;11154;48.558;9.234;2024-03-02T04:24:21;6.35;;;3.47;;
21979;SDS011;11154;48.558;9.234;2024-03-02T04:26:23;9.05;;;4.13;;
21979;SDS011;11154;48.558;9.234;2024-03-02T04:28:25;7.28;;;3.88;;
21979;SDS011;11154;48.558;9.234;2024-03-02T04:30:27;5.13;;;3.47;;
21979;SDS011;11154;48.558;9.234;2024-03-02T04:32:30;7.03;;;4.22;;
21979;SDS011;11154;48.558;9.234;2024-03-02T04:34:31;4.88;;;3.95;;
21979;SDS011;11154;48.558;9.234;2024-03-02T04:36:33;7.53;;;4.35;;
21979;SDS011;11154;48.558;9.234;2024-03-02T04:38:34;8.38;;;4.18;;
21979;SDS011;11154;48.558;9.234;2024-03-02T04:40:36;6.90;;;4.50;;
21979;SDS011;11154;48.558;9.234;2024-03-02T04:42:37;5.03;;;3.60;;
21979;SDS011;11154;48.558;9.234;2024-03-02T04:44:39;5.10;;;4.22;;
21979;SDS011;11154;48.558;9.234;2024-03-02T04:46:40;5.00;;;4.30;;
21979;SDS011;11154;48.558;9.234;2024-03-02T04:48:43;6.28;;;4.22;;
21979;SDS011;11154;48.558;9.234;2024-03-02T04:50:44;5.45;;;4.18;;
21979;SDS011;11154;48.558;9.234;2024-03-02T04:52:46;5.95;;;4.32;;
21979;SDS011;11154;48.558;9.234;2024-03-02T04:54:47;6.95;;;5.13;;
21979;SDS011;11154;48.558;9.234;2024-03-02T04:57:06;6.30;;;4.77;;
21979;SDS011;11154;48.558;9.234;2024-03-02T04:59:08;6.78;;;4.47;;
21979;SDS011;11154;48.558;9.234;2024-03-02T05:01:08;8.00;;;4.43;;
21979;SDS011;11154;48.558;9.234;2024-03-02T05:03:10;5.93;;;4.22;;
21979;SDS011;11154;48.558;9.234;2024-03-02T05:05:13;6.85;;;4.25;;
21979;SDS011;11154;48.558;9.234;2024-03-02T05:07:15;6.47;;;3.60;;
21979;SDS011;11154;48.558;9.234;2024-03-02T05:09:17;6.70;;;4.45;;
21979;SDS011;11154;48.558;9.234;2024-03-02T05:11:18;8.32;;;4.30;;
21979;SDS011;11154;48.558;9.234;2024-03-02T05:13:37;4.00;;;3.30;;
21979;SDS011;11154;48.558;9.234;2024-03-02T05:15:39;5.60;;;3.75;;
21979;SDS011;11154;48.558;9.234;2024-03-02T05:17:41;5.90;;;4.13;;
21979;SDS011;11154;48.558;9.234;2024-03-02T05:19:43;6.45;;;4.55;;
21979;SDS011;11154;48.558;9.234;2024-03-02T05:21:46;5.18;;;4.07;;
21979;SDS011;11154;48.558;9.234;2024-03-02T05:23:48;14.35;;;9.23;;
21979;SDS011;11154;48.558;9.234;2024-03-02T05:25:50;9.00;;;6.68;;
21979;SDS011;11154;48.558;9.234;2024-03-02T05:27:52;3.40;;;2.45;;
21979;SDS011;11154;48.558;9.234;2024-03-02T05:29:53;3.42;;;3.13;;
21979;SDS011;11154;48.558;9.234;2024-03-02T05:31:54;4.55;;;3.67;;
21979;SDS011;11154;48.558;9.234;2024-03-02T05:33:56;4.88;;;3.85;;
21979;SDS011;11154;48.558;9.234;2024-03-02T05:35:57;3.95;;;3.55;;
21979;SDS011;11154;48.558;9.234;2024-03-02T05:38:00;3.72;;;3.15;;
21979;SDS011;11154;48.558;9.234;2024-03-02T05:40:01;4.28;;;3.47;;
21979;SDS011;11154;48.558;9.234;2024-03-02T05:42:03;5.45;;;3.60;;
21979;SDS011;11154;48.558;9.234;2024-03-02T05:44:04;4.60;;;3.88;;
21979;SDS011;11154;48.558;9.234;2024-03-02T05:46:05;5.85;;;3.90;;
21979;SDS011;11154;48.558;9.234;2024-03-02T05:48:07;5.97;;;4.60;;
21979;SDS011;11154;48.558;9.234;2024-03-02T05:50:09;6.05;;;4.82;;
21979;SDS011;11154;48.558;9.234;2024-03-02T05:52:10;7.15;;;5.28;;
21979;SDS011;11154;48.558;9.234;2024-03-02T05:54:13;7.20;;;4.88;;
21979;SDS011;11154;48.558;9.234;2024-03-02T05:56:15;6.32;;;4.75;;
21979;SDS011;11154;48.558;9.234;2024-03-02T05:58:16;7.38;;;5.20;;
21979;SDS011;11154;48.558;9.234;2024-03-02T06:00:27;5.97;;;4.75;;
21979;SDS011;11154;48.558;9.234;2024-03-02T06:02:31;6.70;;;4.82;;
21979;SDS011;11154;48.558;9.234;2024-03-02T06:04:31;5.70;;;4.25;;
21979;SDS011;11154;48.558;9.234;2024-03-02T06:06:33;8.93;;;4.20;;
21979;SDS011;11154;48.558;9.234;2024-03-02T06:08:35;5.20;;;4.32;;
21979;SDS011;11154;48.558;9.234;2024-03-02T06:10:37;7.15;;;4.60;;
21979;SDS011;11154;48.558;9.234;2024-03-02T06:12:38;6.05;;;4.15;;
21979;SDS011;11154;48.558;9.234;2024-03-02T06:14:40;7.78;;;4.68;;
21979;SDS011;11154;48.558;9.234;2024-03-02T06:16:42;5.32;;;4.30;;
21979;SDS011;11154;48.558;9.234;2024-03-02T06:18:43;5.40;;;3.88;;
21979;SDS011;11154;48.558;9.234;2024-03-02T06:20:45;5.45;;;3.92;;
21979;SDS011;11154;48.558;9.234;2024-03-02T06:22:46;6.30;;;4.40;;
21979;SDS011;11154;48.558;9.234;2024-03-02T06:24:48;7.38;;;5.00;;
21979;SDS011;11154;48.558;9.234;2024-03-02T06:26:51;8.07;;;5.30;;
21979;SDS011;11154;48.558;9.234;2024-03-02T06:28:53;6.72;;;4.75;;
21979;SDS011;11154;48.558;9.234;2024-03-02T06:30:54;6.13;;;4.70;;
21979;SDS011;11154;48.558;9.234;2024-03-02T06:32:55;7.88;;;4.32;;
21979;SDS011;11154;48.558;9.234;2024-03-02T06:34:56;4.30;;;3.85;;
21979;SDS011;11154;48.558;9.234;2024-03-02T06:36:57;5.22;;;3.92;;
21979;SDS011;11154;48.558;9.234;2024-03-02T06:38:58;5.55;;;4.25;;
21979;SDS011;11154;48.558;9.234;2024-03-02T06:41:00;9.85;;;4.50;;
21979;SDS011;11154;48.558;9.234;2024-03-02T06:43:03;6.85;;;4.47;;
21979;SDS011;11154;48.558;9.234;2024-03-02T06:45:05;5.65;;;4.60;;
21979;SDS011;11154;48.558;9.234;2024-03-02T06:47:06;7.05;;;5.13;;
21979;SDS011;11154;48.558;9.234;2024-03-02T06:49:08;7.07;;;4.70;;
21979;SDS011;11154;48.558;9.234;2024-03-02T06:51:10;5.78;;;4.57;;
21979;SDS011;11154;48.558;9.234;2024-03-02T06:53:12;6.65;;;4.70;;
21979;SDS011;11154;48.558;9.234;2024-03-02T06:55:14;6.93;;;4.75;;
21979;SDS011;11154;48.558;9.234;2024-03-02T06:57:15;7.18;;;4.93;;
21979;SDS011;11154;48.558;9.234;2024-03-02T06:59:18;7.43;;;5.28;;
21979;SDS011;11154;48.558;9.234;2024-03-02T07:01:20;8.13;;;5.75;;
21979;SDS011;11154;48.558;9.234;2024-03-02T07:03:21;9.38;;;6.57;;
21979;SDS011;11154;48.558;9.234;2024-03-02T07:05:23;6.20;;;5.00;;
21979;SDS011;11154;48.558;9.234;2024-03-02T07:07:24;9.15;;;5.18;;
21979;SDS011;11154;48.558;9.234;2024-03-02T07:09:25;7.63;;;5.53;;
21979;SDS011;11154;48.558;9.234;2024-03-02T07:11:27;5.97;;;5.05;;
21979;SDS011;11154;48.558;9.234;2024-03-02T07:13:28;6.63;;;5.30;;
21979;SDS011;11154;48.558;9.234;2024-03-02T07:15:31;7.80;;;5.45;;
21979;SDS011;11154;48.558;9.234;2024-03-02T07:17:47;6.90;;;5.82;;
21979;SDS011;11154;48.558;9.234;2024-03-02T07:19:48;8.15;;;6.22;;
21979;SDS011;11154;48.558;9.234;2024-03-02T07:21:50;7.40;;;5.78;;
21979;SDS011;11154;48.558;9.234;2024-03-02T07:23:52;7.30;;;5.53;;
21979;SDS011;11154;48.558;9.234;2024-03-02T07:25:53;7.10;;;5.32;;
21979;SDS011;11154;48.558;9.234;2024-03-02T07:27:56;6.85;;;4.97;;
21979;SDS011;11154;48.558;9.234;2024-03-02T07:29:58;12.57;;;5.70;;
21979;SDS011;11154;48.558;9.234;2024-03-02T07:32:01;8.00;;;5.50;;
21979;SDS011;11154;48.558;9.234;2024-03-02T07:34:03;7.35;;;5.30;;
21979;SDS011;11154;48.558;9.234;2024-03-02T07:36:04;10.25;;;5.53;;
21979;SDS011;11154;48.558;9.234;2024-03-02T07:38:05;8.15;;;5.03;;
21979;SDS011;11154;48.558;9.234;2024-03-02T07:40:07;7.80;;;5.78;;
21979;SDS011;11154;48.558;9.234;2024-03-02T07:42:10;8.05;;;5.82;;
21979;SDS011;11154;48.558;9.234;2024-03-02T07:44:11;7.20;;;6.18;;
21979;SDS011;11154;48.558;9.234;2024-03-02T07:46:14;8.18;;;6.20;;
21979;SDS011;11154;48.558;9.234;2024-03-02T07:48:16;7.47;;;6.07;;
21979;SDS011;11154;48.558;9.234;2024-03-02T07:50:18;7.10;;;5.80;;
21979;SDS011;11154;48.558;9.234;2024-03-02T07:52:20;7.18;;;5.28;;
21979;SDS011;11154;48.558;9.234;2024-03-02T07:54:20;7.43;;;5.47;;
21979;SDS011;11154;48.558;9.234;2024-03-02T07:56:22;10.75;;;6.90;;
21979;SDS011;11154;48.558;9.234;2024-03-02T07:58:24;10.45;;;7.80;;
21979;SDS011;11154;48.558;9.234;2024-03-02T08:00:25;8.13;;;6.10;;
21979;SDS011;11154;48.558;9.234;2024-03-02T08:02:27;7.53;;;5.90;;
21979;SDS011;11154;48.558;9.234;2024-03-02T08:04:30;9.80;;;6.05;;
21979;SDS011;11154;48.558;9.234;2024-03-02T08:06:31;7.68;;;6.07;;
21979;SDS011;11154;48.558;9.234;2024-03-02T08:08:33;7.65;;;6.03;;
21979;SDS011;11154;48.558;9.234;2024-03-02T08:10:33;7.18;;;5.57;;
21979;SDS011;11154;48.558;9.234;2024-03-02T08:12:35;8.18;;;5.55;;
21979;SDS011;11154;48.558;9.234;2024-03-02T08:14:36;7.90;;;6.03;;
21979;SDS011;11154;48.558;9.234;2024-03-02T08:16:38;7.68;;;5.55;;
21979;SDS011;11154;48.558;9.234;2024-03-02T08:18:39;7.72;;;6.05;;
21979;SDS011;11154;48.558;9.234;2024-03-02T08:20:42;9.45;;;6.43;;
21979;SDS011;11154;48.558;9.234;2024-03-02T08:22:44;10.75;;;6.57;;
21979;SDS011;11154;48.558;9.234;2024-03-02T08:24:45;9.90;;;6.88;;
21979;SDS011;11154;48.558;9.234;2024-03-02T08:26:47;8.13;;;5.68;;
21979;SDS011;11154;48.558;9.234;2024-03-02T08:28:48;6.68;;;5.70;;
21979;SDS011;11154;48.558;9.234;2024-03-02T08:30:50;7.22;;;5.57;;
21979;SDS011;11154;48.558;9.234;2024-03-02T08:32:52;7.43;;;5.25;;
21979;SDS011;11154;48.558;9.234;2024-03-02T08:34:53;8.13;;;5.38;;
21979;SDS011;11154;48.558;9.234;2024-03-02T08:36:56;6.30;;;5.18;;
21979;SDS011;11154;48.558;9.234;2024-03-02T08:38:58;6.65;;;4.82;;
21979;SDS011;11154;48.558;9.234;2024-03-02T08:41:00;6.63;;;5.32;;
21979;SDS011;11154;48.558;9.234;2024-03-02T08:43:01;6.15;;;5.22;;
21979;SDS011;11154;48.558;9.234;2024-03-02T08:45:04;6.22;;;5.63;;
21979;SDS011;11154;48.558;9.234;2024-03-02T08:47:06;7.20;;;5.82;;
21979;SDS011;11154;48.558;9.234;2024-03-02T08:49:07;9.18;;;7.53;;
21979;SDS011;11154;48.558;9.234;2024-03-02T08:51:09;8.82;;;6.90;;
21979;SDS011;11154;48.558;9.234;2024-03-02T08:53:12;16.05;;;10.48;;
21979;SDS011;11154;48.558;9.234;2024-03-02T08:55:18;11.38;;;8.68;;
21979;SDS011;11154;48.558;9.234;2024-03-02T08:57:19;9.77;;;7.63;;
21979;SDS011;11154;48.558;9.234;2024-03-02T08:59:21;10.48;;;6.95;;
21979;SDS011;11154;48.558;9.234;2024-03-02T09:01:23;9.35;;;6.35;;
21979;SDS011;11154;48.558;9.234;2024-03-02T09:03:24;7.07;;;5.97;;
21979;SDS011;11154;48.558;9.234;2024-03-02T09:05:25;8.77;;;6.63;;
21979;SDS011;11154;48.558;9.234;2024-03-02T09:07:26;9.05;;;7.00;;
21979;SDS011;11154;48.558;9.234;2024-03-02T09:09:29;7.43;;;5.90;;
21979;SDS011;11154;48.558;9.234;2024-03-02T09:11:32;6.95;;;5.65;;
21979;SDS011;11154;48.558;9.234;2024-03-02T09:13:34;6.85;;;5.88;;
21979;SDS011;11154;48.558;9.234;2024-03-02T09:15:37;7.50;;;5.32;;
21979;SDS011;11154;48.558;9.234;2024-03-02T09:17:39;7.20;;;5.68;;
21979;SDS011;11154;48.558;9.234;2024-03-02T09:19:41;7.30;;;5.70;;
21979;SDS011;11154;48.558;9.234;2024-03-02T09:21:43;104.30;;;11.45;;
21979;SDS011;11154;48.558;9.234;2024-03-02T09:23:44;16.98;;;6.07;;
21979;SDS011;11154;48.558;9.234;2024-03-02T09:25:47;8.25;;;5.55;;
21979;SDS011;11154;48.558;9.234;2024-03-02T09:27:49;8.45;;;5.90;;
21979;SDS011;11154;48.558;9.234;2024-03-02T09:29:49;7.43;;;5.43;;
21979;SDS011;11154;48.558;9.234;2024-03-02T09:31:51;8.68;;;6.05;;
21979;SDS011;11154;48.558;9.234;2024-03-02T09:33:52;7.53;;;5.93;;
21979;SDS011;11154;48.558;9.234;2024-03-02T09:35:54;7.75;;;5.45;;
21979;SDS011;11154;48.558;9.234;2024-03-02T09:37:55;8.65;;;6.05;;
21979;SDS011;11154;48.558;9.234;2024-03-02T09:39:56;7.88;;;5.57;;
21979;SDS011;11154;48.558;9.234;2024-03-02T09:41:59;6.20;;;5.28;;
21979;SDS011;11154;48.558;9.234;2024-03-02T09:44:02;7.78;;;6.28;;
21979;SDS011;11154;48.558;9.234;2024-03-02T09:46:03;7.43;;;5.30;;
21979;SDS011;11154;48.558;9.234;2024-03-02T09:48:05;6.60;;;5.82;;
21979;SDS011;11154;48.558;9.234;2024-03-02T09:50:07;7.35;;;5.63;;
21979;SDS011;11154;48.558;9.234;2024-03-02T09:52:10;6.78;;;5.63;;
21979;SDS011;11154;48.558;9.234;2024-03-02T09:54:12;8.75;;;6.10;;
21979;SDS011;11154;48.558;9.234;2024-03-02T09:56:12;8.43;;;6.45;;
21979;SDS011;11154;48.558;9.234;2024-03-02T09:58:17;8.45;;;5.75;;
21979;SDS011;11154;48.558;9.234;2024-03-02T10:00:18;8.45;;;5.55;;
21979;SDS011;11154;48.558;9.234;2024-03-02T10:02:20;6.55;;;5.80;;
21979;SDS011;11154;48.558;9.234;2024-03-02T10:04:22;7.60;;;6.07;;
21979;SDS011;11154;48.558;9.234;2024-03-02T10:06:25;9.38;;;5.90;;
21979;SDS011;11154;48.558;9.234;2024-03-02T10:08:28;6.05;;;5.40;;
21979;SDS011;11154;48.558;9.234;2024-03-02T10:10:43;6.30;;;5.00;;
21979;SDS011;11154;48.558;9.234;2024-03-02T10:12:45;6.45;;;5.50;;
21979;SDS011;11154;48.558;9.234;2024-03-02T10:14:48;7.43;;;5.65;;
21979;SDS011;11154;48.558;9.234;2024-03-02T10:16:51;7.65;;;5.50;;
21979;SDS011;11154;48.558;9.234;2024-03-02T10:18:53;7.35;;;5.07;;
21979;SDS011;11154;48.558;9.234;2024-03-02T10:20:55;8.75;;;5.07;;
21979;SDS011;11154;48.558;9.234;2024-03-02T10:23:14;7.45;;;5.35;;
21979;SDS011;11154;48.558;9.234;2024-03-02T10:25:28;6.55;;;5.55;;
21979;SDS011;11154;48.558;9.234;2024-03-02T10:27:30;7.43;;;5.05;;
21979;SDS011;11154;48.558;9.234;2024-03-02T10:29:39;6.00;;;4.50;;
21979;SDS011;11154;48.558;9.234;2024-03-02T10:31:43;5.88;;;4.88;;
21979;SDS011;11154;48.558;9.234;2024-03-02T10:33:45;5.70;;;4.72;;
21979;SDS011;11154;48.558;9.234;2024-03-02T10:35:47;6.80;;;4.93;;
21979;SDS011;11154;48.558;9.234;2024-03-02T10:37:50;7.80;;;4.80;;
21979;SDS011;11154;48.558;9.234;2024-03-02T10:39:52;8.45;;;4.60;;
21979;SDS011;11154;48.558;9.234;2024-03-02T10:41:54;4.85;;;4.25;;
21979;SDS011;11154;48.558;9.234;2024-03-02T10:43:56;4.78;;;4.20;;
21979;SDS011;11154;48.558;9.234;2024-03-02T10:46:00;6.53;;;4.68;;
21979;SDS011;11154;48.558;9.234;2024-03-02T10:48:03;5.45;;;4.30;;
21979;SDS011;11154;48.558;9.234;2024-03-02T10:50:06;8.32;;;4.68;;
21979;SDS011;11154;48.558;9.234;2024-03-02T10:52:09;7.60;;;4.40;;
21979;SDS011;11154;48.558;9.234;2024-03-02T10:54:10;4.78;;;4.28;;
21979;SDS011;11154;48.558;9.234;2024-03-02T10:56:13;4.97;;;3.83;;
21979;SDS011;11154;48.558;9.234;2024-03-02T10:58:24;4.40;;;4.00;;
21979;SDS011;11154;48.558;9.234;2024-03-02T11:00:33;6.20;;;3.80;;
21979;SDS011;11154;48.558;9.234;2024-03-02T11:02:39;5.65;;;3.97;;
21979;SDS011;11154;48.558;9.234;2024-03-02T11:04:44;5.00;;;3.80;;
21979;SDS011;11154;48.558;9.234;2024-03-02T11:06:49;6.60;;;4.00;;
21979;SDS011;11154;48.558;9.234;2024-03-02T11:08:50;5.40;;;3.55;;
21979;SDS011;11154;48.558;9.234;2024-03-02T11:10:57;5.40;;;3.15;;
21979;SDS011;11154;48.558;9.234;2024-03-02T11:13:00;4.22;;;2.88;;
21979;SDS011;11154;48.558;9.234;2024-03-02T11:15:08;4.25;;;3.20;;
21979;SDS011;11154;48.558;9.234;2024-03-02T11:17:12;6.90;;;3.10;;
21979;SDS011;11154;48.558;9.234;2024-03-02T11:19:16;3.20;;;2.83;;
21979;SDS011;11154;48.558;9.234;2024-03-02T11:21:19;2.83;;;2.53;;
21979;SDS011;11154;48.558;9.234;2024-03-02T11:23:31;4.82;;;2.70;;
21979;SDS011;11154;48.558;9.234;2024-03-02T11:25:33;2.97;;;2.40;;
21979;SDS011;11154;48.558;9.234;2024-03-02T11:30:06;2.35;;;2.15;;
21979;SDS011;11154;48.558;9.234;2024-03-02T11:32:12;3.67;;;2.20;;
21979;SDS011;11154;48.558;9.234;2024-03-02T11:34:17;3.00;;;2.70;;
21979;SDS011;11154;48.558;9.234;2024-03-02T11:36:21;3.90;;;2.83;;
21979;SDS011;11154;48.558;9.234;2024-03-02T11:38:22;3.63;;;2.50;;
21979;SDS011;11154;48.558;9.234;2024-03-02T11:40:25;6.00;;;2.30;;
21979;SDS011;11154;48.558;9.234;2024-03-02T11:42:27;2.63;;;2.25;;
21979;SDS011;11154;48.558;9.234;2024-03-02T11:44:28;5.60;;;2.63;;
21979;SDS011;11154;48.558;9.234;2024-03-02T11:46:30;3.17;;;2.13;;
21979;SDS011;11154;48.558;9.234;2024-03-02T11:48:32;3.13;;;2.58;;
21979;SDS011;11154;48.558;9.234;2024-03-02T11:50:34;3.78;;;2.60;;
21979;SDS011;11154;48.558;9.234;2024-03-02T11:52:39;2.63;;;2.30;;
21979;SDS011;11154;48.558;9.234;2024-03-02T11:54:43;3.45;;;2.30;;
21979;SDS011;11154;48.558;9.234;2024-03-02T11:56:51;2.47;;;1.92;;
21979;SDS011;11154;48.558;9.234;2024-03-02T11:58:54;3.08;;;1.75;;
21979;SDS011;11154;48.558;9.234;2024-03-02T12:00:55;2.03;;;1.60;;
21979;SDS011;11154;48.558;9.234;2024-03-02T12:02:59;2.08;;;1.42;;
21979;SDS011;11154;48.558;9.234;2024-03-02T12:05:02;3.22;;;2.00;;
21979;SDS011;11154;48.558;9.234;2024-03-02T12:07:05;2.70;;;2.28;;
21979;SDS011;11154;48.558;9.234;2024-03-02T12:09:08;2.03;;;1.48;;
21979;SDS011;11154;48.558;9.234;2024-03-02T12:11:14;1.35;;;1.00;;
21979;SDS011;11154;48.558;9.234;2024-03-02T12:13:16;1.40;;;1.20;;
21979;SDS011;11154;48.558;9.234;2024-03-02T12:15:16;1.48;;;0.80;;
21979;SDS011;11154;48.558;9.234;2024-03-02T12:17:18;1.38;;;0.90;;
21979;SDS011;11154;48.558;9.234;2024-03-02T12:19:20;1.42;;;0.90;;
21979;SDS011;11154;48.558;9.234;2024-03-02T12:21:22;1.40;;;1.08;;